EGLF

Farnborough Airport

Farnborough, United Kingdom
METAR EGLF 122020Z 08014KT CAVOK 02/M02 Q1018
Observed Flight Rules
Dec-12 @ 20:20 UTC (59 minutes ago) Visual Flight Rules
Wind Visibility Clouds
80° at 14 knots 10,000+ meters
  • Clear skies
Temperatures Readings
Current 2°C / 36°F
Dewpoint -2°C / 28°F
Humidity 75%
Altimeter 30.06" Hg
Pressure 1018 hPa
Elevation 65
METAR EGLF 122020Z 08014KT CAVOK 02/M02 Q1018
Observed Flight Rules
Dec-12 @ 20:20 UTC
(59 minutes ago)
VFR
Wind Visibility
80° at 14 knots 10,000+ meters
Clouds
  • Clear skies
Temperature Dewpoint
2°C / 36°F -2°C / 28°F
Humidity Altimeter Pressure
75% 30.06" Hg 1018 hPa